createdAt,value
2019-04-19T00:01:57.064Z,98.30
2019-04-19T00:03:53.207Z,98.30
2019-04-19T00:06:19.077Z,98.30
2019-04-19T00:08:34.076Z,98.30
2019-04-19T00:10:31.824Z,98.30
2019-04-19T00:12:34.963Z,98.30
2019-04-19T00:14:27.897Z,98.30
2019-04-19T00:16:29.904Z,98.30
2019-04-19T00:18:32.764Z,98.30
2019-04-19T00:20:59.834Z,98.30
2019-04-19T00:22:52.441Z,98.30
2019-04-19T00:24:43.755Z,98.30
2019-04-19T00:26:46.725Z,98.30
2019-04-19T00:28:54.465Z,98.30
2019-04-19T00:31:04.274Z,98.30
2019-04-19T00:33:11.248Z,98.30
2019-04-19T00:35:00.933Z,98.30
2019-04-19T00:37:03.669Z,98.30
2019-04-19T00:39:33.718Z,98.30
2019-04-19T00:41:40.821Z,98.30
2019-04-19T00:43:55.956Z,98.30
2019-04-19T00:46:05.901Z,98.30
2019-04-19T00:48:02.446Z,98.30
2019-04-19T00:50:11.421Z,98.30
2019-04-19T00:52:13.720Z,98.30
2019-04-19T00:54:13.074Z,98.30
2019-04-19T00:56:13.304Z,98.30
2019-04-19T00:58:16.295Z,98.30
2019-04-19T01:00:20.659Z,98.30
2019-04-19T01:02:20.149Z,98.30
2019-04-19T01:04:25.685Z,98.30
2019-04-19T01:06:32.997Z,98.30
2019-04-19T01:08:29.206Z,98.30
2019-04-19T01:10:43.781Z,98.30
2019-04-19T01:12:52.513Z,98.30
2019-04-19T01:14:48.659Z,98.30
2019-04-19T01:17:04.520Z,98.30
2019-04-19T01:18:55.920Z,98.30
2019-04-19T01:20:52.306Z,98.30
2019-04-19T01:22:58.783Z,98.30
2019-04-19T01:24:58.413Z,98.30
2019-04-19T01:27:00.674Z,98.30
2019-04-19T01:29:08.472Z,98.30
2019-04-19T01:31:13.299Z,98.30
2019-04-19T01:33:10.614Z,98.30
2019-04-19T01:35:15.667Z,98.30
2019-04-19T01:37:21.023Z,98.30
2019-04-19T01:39:32.134Z,98.30
2019-04-19T01:41:37.335Z,98.30
2019-04-19T01:43:49.710Z,98.30
2019-04-19T01:46:14.339Z,98.30
2019-04-19T01:48:31.091Z,98.30
2019-04-19T01:50:55.977Z,98.30
2019-04-19T01:53:03.523Z,98.30
2019-04-19T01:54:54.141Z,98.30
2019-04-19T01:56:56.872Z,98.30
2019-04-19T01:58:57.412Z,98.30
2019-04-19T02:01:00.229Z,98.30
2019-04-19T02:03:04.573Z,98.30
2019-04-19T02:05:10.340Z,98.30
2019-04-19T02:07:13.458Z,98.30
2019-04-19T02:09:25.419Z,98.30
2019-04-19T02:11:47.137Z,98.30
2019-04-19T02:13:51.084Z,98.30
2019-04-19T02:15:48.706Z,98.30
2019-04-19T02:17:51.372Z,98.30
2019-04-19T02:20:00.131Z,98.30
2019-04-19T02:22:02.095Z,98.30
2019-04-19T02:24:02.557Z,98.30
2019-04-19T02:26:09.441Z,98.30
2019-04-19T02:28:11.102Z,98.30
2019-04-19T02:30:19.569Z,98.30
2019-04-19T02:32:30.898Z,98.30
2019-04-19T02:39:01.790Z,98.30
2019-04-19T02:42:54.623Z,98.30
2019-04-19T02:45:03.727Z,98.30
2019-04-19T02:47:24.973Z,98.30
2019-04-19T02:49:23.327Z,98.30
2019-04-19T02:55:35.497Z,98.30
2019-04-19T02:57:48.734Z,98.30
2019-04-19T03:00:04.728Z,98.30
2019-04-19T03:04:39.464Z,98.30
2019-04-19T03:06:08.732Z,98.30
2019-04-19T03:07:57.738Z,98.30
2019-04-19T03:10:00.555Z,98.30
2019-04-19T03:12:16.755Z,98.30
2019-04-19T03:14:22.377Z,98.30
2019-04-19T03:16:31.452Z,98.30
2019-04-19T03:18:35.917Z,98.30
2019-04-19T03:20:36.344Z,98.30
2019-04-19T03:22:39.712Z,98.30
2019-04-19T03:24:47.866Z,98.30
2019-04-19T03:26:47.134Z,98.30
2019-04-19T03:28:44.943Z,98.30
2019-04-19T03:31:08.677Z,98.30
2019-04-19T03:33:09.431Z,98.30
2019-04-19T03:37:08.961Z,98.30
2019-04-19T03:39:20.254Z,98.30
2019-04-19T03:41:18.503Z,98.30
2019-04-19T03:45:36.618Z,98.30
2019-04-19T03:47:45.916Z,98.30
2019-04-19T03:49:57.330Z,98.30
2019-04-19T03:51:57.397Z,98.30
2019-04-19T03:54:06.586Z,98.30
2019-04-19T03:56:01.726Z,98.30
2019-04-19T03:57:51.491Z,98.30
2019-04-19T03:59:45.818Z,98.30
2019-04-19T04:01:52.781Z,98.30
2019-04-19T04:03:56.622Z,98.30
2019-04-19T04:05:56.519Z,98.30
2019-04-19T04:08:10.215Z,98.30
2019-04-19T04:10:29.257Z,98.30
2019-04-19T04:12:49.563Z,98.30
2019-04-19T04:15:03.907Z,98.30
2019-04-19T04:17:16.501Z,98.30
2019-04-19T04:19:18.606Z,98.30
2019-04-19T04:21:27.139Z,98.30
2019-04-19T04:23:31.782Z,98.30
2019-04-19T04:25:36.345Z,98.30
2019-04-19T04:27:48.674Z,98.30
2019-04-19T04:29:41.770Z,98.30
2019-04-19T04:31:48.313Z,98.30
2019-04-19T04:33:54.539Z,98.30
2019-04-19T04:36:04.134Z,98.30
2019-04-19T04:38:03.044Z,98.30
2019-04-19T04:39:53.709Z,98.30
2019-04-19T04:42:09.137Z,98.30
2019-04-19T04:44:18.426Z,98.30
2019-04-19T04:46:32.741Z,98.30
2019-04-19T04:48:40.658Z,98.30
2019-04-19T04:51:01.700Z,98.30
2019-04-19T04:52:51.401Z,98.30
2019-04-19T04:54:58.922Z,98.30
2019-04-19T04:57:32.851Z,98.30
2019-04-19T04:59:30.074Z,98.30
2019-04-19T05:01:44.103Z,98.30
2019-04-19T05:03:55.568Z,98.30
2019-04-19T05:06:02.917Z,98.30
2019-04-19T05:08:03.939Z,98.30
2019-04-19T05:10:08.607Z,98.30
2019-04-19T05:12:14.921Z,98.30
2019-04-19T05:14:11.522Z,98.30
2019-04-19T05:16:21.124Z,98.30
2019-04-19T05:18:26.424Z,98.30
2019-04-19T05:20:23.870Z,98.30
2019-04-19T05:22:22.108Z,98.30
2019-04-19T05:24:35.273Z,98.30
2019-04-19T05:28:37.394Z,98.30
2019-04-19T05:30:38.625Z,98.30
2019-04-19T05:32:34.368Z,98.30
2019-04-19T05:34:52.498Z,98.30
2019-04-19T05:36:54.640Z,98.30
2019-04-19T05:39:06.052Z,98.30
2019-04-19T05:41:27.103Z,98.30
2019-04-19T05:43:54.077Z,98.30
2019-04-19T05:45:56.083Z,98.30
2019-04-19T05:47:33.597Z,98.30
2019-04-19T05:49:45.813Z,98.30
2019-04-19T05:53:41.195Z,98.30
2019-04-19T05:55:38.956Z,98.30
2019-04-19T05:57:59.294Z,98.30
2019-04-19T05:59:54.811Z,98.30
2019-04-19T06:02:02.226Z,98.30
2019-04-19T06:04:11.838Z,98.30
2019-04-19T06:06:20.142Z,98.30
2019-04-19T06:08:08.824Z,98.30
2019-04-19T06:10:06.514Z,98.30
2019-04-19T06:12:12.417Z,98.30
2019-04-19T06:14:32.206Z,98.30
2019-04-19T06:16:30.596Z,98.30
2019-04-19T06:18:46.413Z,98.30
2019-04-19T06:20:57.991Z,98.30
2019-04-19T06:22:58.468Z,98.30
2019-04-19T06:25:01.047Z,98.30
2019-04-19T06:27:13.316Z,98.30
2019-04-19T06:29:10.632Z,98.30
2019-04-19T06:31:24.102Z,98.30
2019-04-19T06:33:18.137Z,98.30
2019-04-19T06:35:16.414Z,98.30
2019-04-19T06:37:15.246Z,98.30
2019-04-19T06:39:12.198Z,98.30
2019-04-19T06:41:18.644Z,98.30
2019-04-19T06:43:32.502Z,97.90
2019-04-19T06:45:35.609Z,96.10
2019-04-19T06:47:32.443Z,96.90
2019-04-19T06:49:31.089Z,96.90
2019-04-19T06:51:41.577Z,95.90
2019-04-19T06:53:44.631Z,94.80
2019-04-19T06:55:44.951Z,94.80
2019-04-19T06:57:54.731Z,94.10
2019-04-19T06:59:57.896Z,95.50
2019-04-19T07:01:55.854Z,94.60
2019-04-19T07:03:55.817Z,94.20
2019-04-19T07:06:14.203Z,93.50
2019-04-19T07:08:47.191Z,92.40
2019-04-19T07:10:37.274Z,92.20
2019-04-19T07:12:32.840Z,92.00
2019-04-19T07:14:19.726Z,92.00
2019-04-19T07:16:41.140Z,92.00
2019-04-19T07:18:33.787Z,92.70
2019-04-19T07:20:33.685Z,92.00
2019-04-19T07:22:50.397Z,89.60
2019-04-19T07:24:53.155Z,89.50
2019-04-19T07:26:56.331Z,89.70
2019-04-19T07:28:40.212Z,90.00
2019-04-19T07:30:49.143Z,88.80
2019-04-19T07:32:55.734Z,89.40
2019-04-19T07:35:02.275Z,89.00
2019-04-19T07:37:17.156Z,88.20
2019-04-19T07:39:13.349Z,87.90
2019-04-19T07:41:36.211Z,87.10
2019-04-19T07:43:22.440Z,87.00
2019-04-19T07:45:39.289Z,86.50
2019-04-19T07:47:45.334Z,86.40
2019-04-19T07:49:44.904Z,85.30
2019-04-19T07:51:53.043Z,85.40
2019-04-19T07:53:49.160Z,84.50
2019-04-19T07:58:30.365Z,85.00
2019-04-19T08:00:31.780Z,84.10
2019-04-19T08:02:36.004Z,84.60
2019-04-19T08:04:40.471Z,84.20
2019-04-19T08:08:47.082Z,82.90
2019-04-19T08:12:45.964Z,81.40
2019-04-19T08:29:00.187Z,78.20
2019-04-19T08:30:59.006Z,78.20
2019-04-19T08:32:58.213Z,78.10
2019-04-19T08:35:02.854Z,78.00
2019-04-19T08:37:10.103Z,76.40
2019-04-19T08:39:26.166Z,77.30
2019-04-19T08:41:23.381Z,77.40
2019-04-19T08:43:36.527Z,78.00
2019-04-19T08:45:38.232Z,77.60
2019-04-19T08:48:07.055Z,76.30
2019-04-19T08:50:22.714Z,76.00
2019-04-19T08:52:33.651Z,75.00
2019-04-19T08:54:53.678Z,73.10
2019-04-19T08:56:44.926Z,73.60
2019-04-19T08:58:55.933Z,73.40
2019-04-19T09:01:10.716Z,73.70
2019-04-19T09:03:03.046Z,74.00
2019-04-19T09:05:09.028Z,72.70
2019-04-19T09:09:19.080Z,73.20
2019-04-19T09:11:21.019Z,72.50
2019-04-19T09:13:28.574Z,71.70
2019-04-19T09:15:28.860Z,71.90
2019-04-19T09:18:13.013Z,71.00
2019-04-19T09:20:05.956Z,71.10
2019-04-19T09:21:38.170Z,71.20
2019-04-19T09:23:38.671Z,69.70
2019-04-19T09:25:50.930Z,69.70
2019-04-19T09:27:59.318Z,68.90
2019-04-19T09:30:04.585Z,69.40
2019-04-19T09:32:00.726Z,68.50
2019-04-19T09:34:01.052Z,68.30
2019-04-19T09:36:03.290Z,68.50
2019-04-19T09:38:11.402Z,67.20
2019-04-19T09:40:10.093Z,68.30
2019-04-19T09:42:19.358Z,67.10
2019-04-19T09:44:20.593Z,67.90
2019-04-19T09:46:16.682Z,68.40
2019-04-19T09:48:36.848Z,66.30
2019-04-19T09:50:38.049Z,66.50
2019-04-19T09:52:51.274Z,67.20
2019-04-19T09:54:51.564Z,68.00
2019-04-19T09:56:52.369Z,66.60
2019-04-19T09:58:49.969Z,67.10
2019-04-19T10:00:43.045Z,65.70
2019-04-19T10:02:51.915Z,66.30
2019-04-19T10:04:48.629Z,66.80
2019-04-19T10:06:51.123Z,67.00
2019-04-19T10:08:53.984Z,65.10
2019-04-19T10:10:56.776Z,66.00
2019-04-19T10:12:58.630Z,64.40
2019-04-19T10:15:00.382Z,64.30
2019-04-19T10:17:09.450Z,65.30
2019-04-19T10:19:11.534Z,65.00
2019-04-19T10:21:31.377Z,64.60
2019-04-19T10:23:29.400Z,65.10
2019-04-19T10:25:35.307Z,65.10
2019-04-19T10:27:37.752Z,65.00
2019-04-19T10:29:43.475Z,64.70
2019-04-19T10:31:50.647Z,64.40
2019-04-19T10:33:57.797Z,62.90
2019-04-19T10:35:55.919Z,63.30
2019-04-19T10:37:57.893Z,63.70
2019-04-19T10:39:59.868Z,63.20
2019-04-19T10:42:02.001Z,63.80
2019-04-19T10:44:12.037Z,63.00
2019-04-19T10:46:08.870Z,61.90
2019-04-19T10:48:11.784Z,61.60
2019-04-19T10:50:27.338Z,62.20
2019-04-19T10:52:22.097Z,62.30
2019-04-19T10:54:24.476Z,61.20
2019-04-19T10:56:38.503Z,61.20
2019-04-19T10:58:40.766Z,60.60
2019-04-19T11:00:43.093Z,61.00
2019-04-19T11:02:46.167Z,60.10
2019-04-19T11:04:48.905Z,60.30
2019-04-19T11:06:53.550Z,59.30
2019-04-19T11:08:56.237Z,60.30
2019-04-19T11:10:58.181Z,59.90
2019-04-19T11:13:00.777Z,59.40
2019-04-19T11:15:04.298Z,58.70
2019-04-19T11:17:07.824Z,59.60
2019-04-19T11:19:17.422Z,58.70
2019-04-19T11:21:13.642Z,58.40
2019-04-19T11:23:15.624Z,58.40
2019-04-19T11:25:17.777Z,58.20
2019-04-19T11:27:19.859Z,57.90
2019-04-19T11:29:21.897Z,57.30
2019-04-19T11:31:37.805Z,56.70
2019-04-19T11:33:39.638Z,57.50
2019-04-19T11:35:46.135Z,56.50
2019-04-19T11:37:49.046Z,57.40
2019-04-19T11:39:51.456Z,56.50
2019-04-19T11:41:53.233Z,55.80
2019-04-19T11:43:55.744Z,55.00
2019-04-19T11:45:57.975Z,55.00
2019-04-19T11:48:00.930Z,55.00
2019-04-19T11:50:03.888Z,54.70
2019-04-19T11:52:10.746Z,54.30
2019-04-19T11:54:12.466Z,54.30
2019-04-19T11:56:45.302Z,53.40
2019-04-19T11:58:38.919Z,53.50
2019-04-19T12:01:00.197Z,53.30
2019-04-19T12:03:02.368Z,52.20
2019-04-19T12:05:12.764Z,52.30
2019-04-19T12:07:10.304Z,52.40
2019-04-19T12:09:12.629Z,52.20
2019-04-19T12:11:19.983Z,52.20
2019-04-19T12:13:21.842Z,50.80
2019-04-19T12:15:29.248Z,51.90
2019-04-19T12:17:31.345Z,52.80
2019-04-19T12:19:39.790Z,51.60
2019-04-19T12:21:37.196Z,51.30
2019-04-19T12:23:39.070Z,51.30
2019-04-19T12:25:41.684Z,51.10
2019-04-19T12:27:43.646Z,50.90
2019-04-19T12:29:48.684Z,51.40
2019-04-19T12:31:49.683Z,51.90
2019-04-19T12:33:51.581Z,49.90
2019-04-19T12:35:53.260Z,51.30
2019-04-19T12:37:57.441Z,52.10
2019-04-19T12:39:59.027Z,52.00
2019-04-19T12:42:01.873Z,51.60
2019-04-19T12:44:04.967Z,52.00
2019-04-19T12:46:07.353Z,51.20
2019-04-19T12:48:09.803Z,50.80
2019-04-19T12:50:13.498Z,49.60
2019-04-19T12:52:15.865Z,49.70
2019-04-19T12:54:18.235Z,51.50
2019-04-19T12:56:20.177Z,51.10
2019-04-19T12:58:22.086Z,51.20
2019-04-19T13:00:26.297Z,52.60
2019-04-19T13:02:35.584Z,51.70
2019-04-19T13:05:16.294Z,50.30
2019-04-19T13:07:18.285Z,52.00
2019-04-19T13:09:21.234Z,51.40
2019-04-19T13:11:23.548Z,51.60
2019-04-19T13:13:25.762Z,51.80
2019-04-19T13:15:27.621Z,52.30
2019-04-19T13:17:30.521Z,51.60
2019-04-19T13:19:33.308Z,50.00
2019-04-19T13:21:36.468Z,50.00
2019-04-19T13:23:38.425Z,49.70
2019-04-19T13:25:41.520Z,49.30
2019-04-19T13:27:50.204Z,49.00
2019-04-19T13:29:47.821Z,49.00
2019-04-19T13:31:49.970Z,48.30
2019-04-19T13:33:53.144Z,47.80
2019-04-19T13:35:55.457Z,50.00
2019-04-19T13:38:15.086Z,49.60
2019-04-19T13:40:35.463Z,49.30
2019-04-19T13:42:37.412Z,49.50
2019-04-19T13:44:39.187Z,48.30
2019-04-19T13:46:40.988Z,48.60
2019-04-19T13:48:43.073Z,47.90
2019-04-19T13:50:47.311Z,48.80
2019-04-19T13:52:48.728Z,48.90
2019-04-19T13:54:50.567Z,48.90
2019-04-19T13:56:52.706Z,48.60
2019-04-19T13:58:55.793Z,48.20
2019-04-19T14:00:58.459Z,47.70
2019-04-19T14:03:01.196Z,46.60
2019-04-19T14:05:03.644Z,47.70
2019-04-19T14:07:05.600Z,47.30
2019-04-19T14:09:09.296Z,47.20
2019-04-19T14:11:11.360Z,48.30
2019-04-19T14:13:13.099Z,48.50
2019-04-19T14:15:15.184Z,48.50
2019-04-19T14:17:17.932Z,48.70
2019-04-19T14:19:20.562Z,49.10
2019-04-19T14:21:22.413Z,49.40
2019-04-19T14:23:24.114Z,47.80
2019-04-19T14:25:27.097Z,48.10
2019-04-19T14:27:29.338Z,48.30
2019-04-19T14:29:31.127Z,47.80
2019-04-19T14:31:32.815Z,48.20
2019-04-19T14:33:34.917Z,47.50
2019-04-19T14:35:37.731Z,47.10
2019-04-19T14:37:41.275Z,47.90
2019-04-19T14:39:44.687Z,48.10
2019-04-19T14:41:47.505Z,47.30
2019-04-19T14:43:50.375Z,48.20
2019-04-19T14:45:52.873Z,48.00
2019-04-19T14:47:55.213Z,47.60
2019-04-19T14:49:57.013Z,48.10
2019-04-19T14:52:00.909Z,48.20
2019-04-19T14:54:02.767Z,47.10
2019-04-19T14:56:04.748Z,46.60
2019-04-19T14:58:06.541Z,47.20
2019-04-19T15:00:09.787Z,46.30
2019-04-19T15:02:16.117Z,47.60
2019-04-19T15:04:24.669Z,48.00
2019-04-19T15:06:28.021Z,48.50
2019-04-19T15:08:30.761Z,49.70
2019-04-19T15:10:33.522Z,50.60
2019-04-19T15:12:36.554Z,50.50
2019-04-19T15:14:38.885Z,50.40
2019-04-19T15:16:41.429Z,50.30
2019-04-19T15:18:45.221Z,50.30
2019-04-19T15:20:57.187Z,52.50
2019-04-19T15:22:52.597Z,52.50
2019-04-19T15:24:54.968Z,53.90
2019-04-19T15:26:57.072Z,54.30
2019-04-19T15:28:58.889Z,55.10
2019-04-19T15:31:00.679Z,55.10
2019-04-19T15:33:02.877Z,55.30
2019-04-19T15:35:05.698Z,56.90
2019-04-19T15:37:07.534Z,57.80
2019-04-19T15:39:10.540Z,58.00
2019-04-19T15:41:12.443Z,58.10
2019-04-19T15:43:15.084Z,58.70
2019-04-19T15:45:20.891Z,58.60
2019-04-19T15:47:22.821Z,58.60
2019-04-19T15:49:25.909Z,58.10
2019-04-19T15:51:32.545Z,58.80
2019-04-19T15:53:31.972Z,59.10
2019-04-19T15:55:34.019Z,59.80
2019-04-19T15:57:36.332Z,60.80
2019-04-19T15:59:39.065Z,60.70
2019-04-19T16:01:57.755Z,60.70
2019-04-19T16:03:59.880Z,61.10
2019-04-19T16:06:11.986Z,61.40
2019-04-19T16:08:34.599Z,61.90
2019-04-19T16:11:00.195Z,61.90
2019-04-19T16:13:02.838Z,62.60
2019-04-19T16:15:06.135Z,62.70
2019-04-19T16:17:09.257Z,63.30
2019-04-19T16:19:12.310Z,63.50
2019-04-19T16:21:23.951Z,63.90
2019-04-19T16:23:18.418Z,64.30
2019-04-19T16:25:21.224Z,64.60
2019-04-19T16:27:23.214Z,64.10
2019-04-19T16:29:35.451Z,64.30
2019-04-19T16:31:28.688Z,64.50
2019-04-19T16:33:31.816Z,64.70
2019-04-19T16:35:34.069Z,64.90
2019-04-19T16:37:37.089Z,65.20
2019-04-19T16:39:39.875Z,65.40
2019-04-19T16:41:42.763Z,65.10
2019-04-19T16:43:44.741Z,65.20
2019-04-19T16:45:49.655Z,65.60
2019-04-19T16:47:51.278Z,65.70
2019-04-19T16:49:54.355Z,65.60
2019-04-19T16:51:58.883Z,65.40
2019-04-19T16:54:00.357Z,65.80
2019-04-19T16:56:03.540Z,66.10
2019-04-19T16:58:06.321Z,66.10
2019-04-19T17:00:09.325Z,66.20
2019-04-19T17:02:11.209Z,66.40
2019-04-19T17:04:13.501Z,66.30
2019-04-19T17:06:15.529Z,66.60
2019-04-19T17:08:17.810Z,66.90
2019-04-19T17:10:20.417Z,67.30
2019-04-19T17:12:24.245Z,67.40
2019-04-19T17:14:27.218Z,67.60
2019-04-19T17:17:04.587Z,68.10
2019-04-19T17:19:11.144Z,68.30
2019-04-19T17:21:15.499Z,68.40
2019-04-19T17:23:18.830Z,68.60
2019-04-19T17:25:21.143Z,68.80
2019-04-19T17:27:28.766Z,68.80
2019-04-19T17:29:26.979Z,68.90
2019-04-19T17:31:29.872Z,68.90
2019-04-19T17:33:32.460Z,68.90
2019-04-19T17:35:34.673Z,69.00
2019-04-19T17:37:36.481Z,69.40
2019-04-19T17:39:38.529Z,69.20
2019-04-19T17:41:40.784Z,69.60
2019-04-19T17:43:43.709Z,69.80
2019-04-19T17:45:46.323Z,69.60
2019-04-19T17:47:48.125Z,69.60
2019-04-19T17:49:51.183Z,69.70
2019-04-19T17:52:01.867Z,70.20
2019-04-19T17:53:58.365Z,70.10
2019-04-19T17:56:01.599Z,70.20
2019-04-19T17:58:05.349Z,70.50
2019-04-19T18:00:08.717Z,70.60
2019-04-19T18:02:11.151Z,70.80
2019-04-19T18:04:13.363Z,71.10
2019-04-19T18:06:16.219Z,71.10
2019-04-19T18:08:24.969Z,71.40
2019-04-19T18:10:26.869Z,71.80
2019-04-19T18:12:25.763Z,72.10
2019-04-19T18:14:27.630Z,72.30
2019-04-19T18:16:30.292Z,72.40
2019-04-19T18:18:41.295Z,72.60
2019-04-19T18:20:36.822Z,72.80
2019-04-19T18:22:51.175Z,73.10
2019-04-19T18:24:50.021Z,73.20
2019-04-19T18:26:46.722Z,73.40
2019-04-19T18:28:49.751Z,73.60
2019-04-19T18:30:55.700Z,73.80
2019-04-19T18:33:02.516Z,73.70
2019-04-19T18:35:07.991Z,73.90
2019-04-19T18:37:08.964Z,74.20
2019-04-19T18:39:11.870Z,74.30
2019-04-19T18:41:15.428Z,74.60
2019-04-19T18:43:27.947Z,74.70
2019-04-19T18:45:25.179Z,75.00
2019-04-19T18:47:25.042Z,75.00
2019-04-19T18:49:27.680Z,75.10
2019-04-19T18:51:36.368Z,75.30
2019-04-19T18:53:40.222Z,75.60
2019-04-19T18:55:43.220Z,75.60
2019-04-19T18:57:44.683Z,75.90
2019-04-19T18:59:51.101Z,76.00
2019-04-19T19:01:49.651Z,76.30
2019-04-19T19:03:51.921Z,76.30
2019-04-19T19:06:00.588Z,76.50
2019-04-19T19:08:01.900Z,76.90
2019-04-19T19:10:03.744Z,77.10
2019-04-19T19:12:11.278Z,77.40
2019-04-19T19:14:10.906Z,77.40
2019-04-19T19:16:18.606Z,77.80
2019-04-19T19:18:17.216Z,77.80
2019-04-19T19:20:24.936Z,78.00
2019-04-19T19:22:35.846Z,78.00
2019-04-19T19:24:53.624Z,77.90
2019-04-19T19:26:49.946Z,78.40
2019-04-19T19:28:38.226Z,78.80
2019-04-19T19:30:40.700Z,78.80
2019-04-19T19:32:49.107Z,78.80
2019-04-19T19:34:47.931Z,79.10
2019-04-19T19:36:52.151Z,78.70
2019-04-19T19:39:00.337Z,79.10
2019-04-19T19:41:11.212Z,79.20
2019-04-19T19:43:26.131Z,79.20
2019-04-19T19:45:20.136Z,79.20
2019-04-19T19:48:08.097Z,79.50
2019-04-19T19:50:18.226Z,79.70
2019-04-19T19:52:16.308Z,80.00
2019-04-19T19:56:29.115Z,80.30
2019-04-19T19:58:17.192Z,80.40
2019-04-19T20:00:22.042Z,80.50
2019-04-19T20:02:25.778Z,80.70
2019-04-19T20:04:19.377Z,80.80
2019-04-19T20:06:24.484Z,80.80
2019-04-19T20:08:31.063Z,81.10
2019-04-19T20:10:34.687Z,80.90
2019-04-19T20:12:35.623Z,80.90
2019-04-19T20:14:37.335Z,81.00
2019-04-19T20:16:39.966Z,81.20
2019-04-19T20:18:45.742Z,81.50
2019-04-19T20:20:46.131Z,81.80
2019-04-19T20:22:50.385Z,82.30
2019-04-19T20:24:59.880Z,82.20
2019-04-19T20:27:06.769Z,82.30
2019-04-19T20:29:03.898Z,82.90
2019-04-19T20:31:05.131Z,82.70
2019-04-19T20:33:10.423Z,82.40
2019-04-19T20:35:16.030Z,82.10
2019-04-19T20:37:17.466Z,82.60
2019-04-19T20:39:24.844Z,83.00
2019-04-19T20:41:22.701Z,82.60
2019-04-19T20:43:39.544Z,83.00
2019-04-19T20:45:36.583Z,83.10
2019-04-19T20:47:33.554Z,83.00
2019-04-19T20:49:41.352Z,82.90
2019-04-19T20:51:53.545Z,83.20
2019-04-19T20:54:10.747Z,83.20
2019-04-19T20:56:33.453Z,83.50
2019-04-19T20:58:20.277Z,83.50
2019-04-19T21:00:10.349Z,83.30
2019-04-19T21:02:21.957Z,83.40
2019-04-19T21:04:17.707Z,83.80
2019-04-19T21:06:27.225Z,84.00
2019-04-19T21:08:24.793Z,84.10
2019-04-19T21:10:27.598Z,84.30
2019-04-19T21:12:31.799Z,84.60
2019-04-19T21:14:38.195Z,84.60
2019-04-19T21:16:37.522Z,84.80
2019-04-19T21:18:39.587Z,84.90
2019-04-19T21:20:42.536Z,85.00
2019-04-19T21:22:44.526Z,85.30
2019-04-19T21:25:04.282Z,85.30
2019-04-19T21:26:51.199Z,85.20
2019-04-19T21:28:55.823Z,85.50
2019-04-19T21:30:59.891Z,85.60
2019-04-19T21:33:06.085Z,85.40
2019-04-19T21:35:09.546Z,85.50
2019-04-19T21:37:10.668Z,85.70
2019-04-19T21:39:15.988Z,85.60
2019-04-19T21:41:22.979Z,85.70
2019-04-19T21:43:21.228Z,85.90
2019-04-19T21:45:28.175Z,85.80
2019-04-19T21:47:28.212Z,86.20
2019-04-19T21:49:30.885Z,86.40
2019-04-19T21:51:35.901Z,86.40
2019-04-19T21:53:41.029Z,86.40
2019-04-19T21:55:44.763Z,86.40
2019-04-19T21:57:46.131Z,86.60
2019-04-19T21:59:48.272Z,86.50
2019-04-19T22:01:51.338Z,86.30
2019-04-19T22:03:57.390Z,86.80
2019-04-19T22:06:00.654Z,86.90
2019-04-19T22:08:02.380Z,86.80
2019-04-19T22:10:05.695Z,86.70
2019-04-19T22:12:08.175Z,86.90
2019-04-19T22:14:13.948Z,87.00
2019-04-19T22:16:14.654Z,86.90
2019-04-19T22:18:16.605Z,87.00
2019-04-19T22:20:22.711Z,87.00
2019-04-19T22:22:26.996Z,86.80
2019-04-19T22:24:32.360Z,86.80
2019-04-19T22:26:34.313Z,87.00
2019-04-19T22:28:33.487Z,87.00
2019-04-19T22:30:40.661Z,86.60
2019-04-19T22:32:48.827Z,86.40
2019-04-19T22:34:42.548Z,86.40
2019-04-19T22:36:47.592Z,86.40
2019-04-19T22:38:54.618Z,86.70
2019-04-19T22:40:52.604Z,86.60
2019-04-19T22:43:01.622Z,86.40
2019-04-19T22:44:58.793Z,87.10
2019-04-19T22:47:01.634Z,87.10
2019-04-19T22:49:08.448Z,86.70
2019-04-19T22:51:10.845Z,87.00
2019-04-19T22:53:10.943Z,86.80
2019-04-19T22:55:16.996Z,86.90
2019-04-19T22:57:21.741Z,87.10
2019-04-19T22:59:21.879Z,87.30
2019-04-19T23:01:38.017Z,87.40
2019-04-19T23:03:41.827Z,87.20
2019-04-19T23:05:46.593Z,87.40
2019-04-19T23:07:50.548Z,87.50
2019-04-19T23:09:50.848Z,87.60
2019-04-19T23:11:53.437Z,87.60
2019-04-19T23:13:55.708Z,87.60
2019-04-19T23:16:04.648Z,87.40
2019-04-19T23:18:03.347Z,87.10
2019-04-19T23:20:05.455Z,87.00
2019-04-19T23:22:08.082Z,87.10
2019-04-19T23:24:12.370Z,87.50
2019-04-19T23:26:22.365Z,87.80
2019-04-19T23:28:26.813Z,87.70
2019-04-19T23:30:27.346Z,87.40
2019-04-19T23:32:29.563Z,87.20
2019-04-19T23:34:31.492Z,87.10
2019-04-19T23:36:33.443Z,86.80
2019-04-19T23:38:35.246Z,87.10
2019-04-19T23:40:39.247Z,87.30
2019-04-19T23:42:42.305Z,87.30
2019-04-19T23:44:46.342Z,87.60
2019-04-19T23:46:49.544Z,87.70
2019-04-19T23:48:55.407Z,87.80
2019-04-19T23:50:55.045Z,87.80
2019-04-19T23:52:59.544Z,87.80
2019-04-19T23:55:02.259Z,87.80
2019-04-19T23:57:14.225Z,87.80
2019-04-19T23:59:12.849Z,87.60
